createdAt,value
2017-08-19T00:01:50.696Z,16.00
2017-08-19T00:04:52.216Z,16.00
2017-08-19T00:07:53.621Z,16.00
2017-08-19T00:10:55.003Z,15.90
2017-08-19T00:13:56.404Z,16.10
2017-08-19T00:16:57.795Z,15.90
2017-08-19T00:19:59.584Z,15.90
2017-08-19T00:23:01.517Z,15.90
2017-08-19T00:26:04.221Z,15.70
2017-08-19T00:29:06.727Z,15.80
2017-08-19T00:32:08.499Z,15.70
2017-08-19T00:35:09.964Z,15.70
2017-08-19T00:38:11.351Z,14.40
2017-08-19T00:41:12.822Z,15.60
2017-08-19T00:44:14.274Z,15.80
2017-08-19T00:47:15.654Z,15.80
2017-08-19T00:50:17.142Z,15.90
2017-08-19T00:53:18.576Z,15.90
2017-08-19T00:56:20.038Z,16.00
2017-08-19T00:59:21.404Z,16.00
2017-08-19T01:02:22.881Z,15.80
2017-08-19T01:05:24.414Z,15.60
2017-08-19T01:08:25.877Z,15.60
2017-08-19T01:11:27.405Z,15.60
2017-08-19T01:14:28.857Z,15.50
2017-08-19T01:17:30.230Z,15.60
2017-08-19T01:20:31.679Z,15.60
2017-08-19T01:23:33.152Z,15.70
2017-08-19T01:26:53.167Z,15.60
2017-08-19T01:29:55.303Z,15.70
2017-08-19T01:32:56.696Z,15.60
2017-08-19T01:35:58.105Z,15.70
2017-08-19T01:38:59.479Z,15.80
2017-08-19T01:42:01.582Z,15.80
2017-08-19T01:45:02.990Z,15.90
2017-08-19T01:48:05.158Z,15.60
2017-08-19T01:51:06.599Z,15.70
2017-08-19T01:54:08.024Z,15.50
2017-08-19T01:57:09.419Z,15.50
2017-08-19T02:00:11.566Z,15.50
2017-08-19T02:03:12.971Z,15.30
2017-08-19T02:06:14.426Z,15.30
2017-08-19T02:09:15.798Z,15.20
2017-08-19T02:12:17.197Z,15.30
2017-08-19T02:15:19.315Z,15.50
2017-08-19T02:18:20.777Z,15.40
2017-08-19T02:21:22.196Z,15.50
2017-08-19T02:24:23.633Z,15.50
2017-08-19T02:27:25.764Z,15.60
2017-08-19T02:30:27.139Z,15.50
2017-08-19T02:33:29.293Z,15.40
2017-08-19T02:36:30.672Z,15.40
2017-08-19T02:39:32.814Z,15.30
2017-08-19T02:42:34.225Z,15.30
2017-08-19T02:45:35.562Z,15.20
2017-08-19T02:48:36.956Z,15.20
2017-08-19T02:51:38.376Z,15.40
2017-08-19T02:54:39.704Z,15.50
2017-08-19T02:57:41.081Z,15.50
2017-08-19T03:00:42.448Z,15.60
2017-08-19T03:03:43.845Z,15.50
2017-08-19T03:06:45.969Z,15.10
2017-08-19T03:09:47.345Z,15.00
2017-08-19T03:12:48.760Z,15.30
2017-08-19T03:15:50.161Z,15.30
2017-08-19T03:18:52.303Z,15.40
2017-08-19T03:21:53.706Z,15.20
2017-08-19T03:24:55.061Z,15.40
2017-08-19T03:27:56.436Z,15.40
2017-08-19T03:30:57.790Z,15.30
2017-08-19T03:33:59.173Z,15.20
2017-08-19T03:37:01.314Z,15.20
2017-08-19T03:40:02.704Z,15.20
2017-08-19T03:43:04.841Z,15.10
2017-08-19T03:46:06.245Z,15.20
2017-08-19T03:49:07.607Z,15.10
2017-08-19T03:52:08.982Z,15.10
2017-08-19T03:55:10.363Z,15.10
2017-08-19T03:58:11.757Z,15.10
2017-08-19T04:01:13.202Z,15.00
2017-08-19T04:04:14.576Z,15.00
2017-08-19T04:07:16.010Z,14.80
2017-08-19T04:10:17.456Z,14.80
2017-08-19T04:13:18.826Z,14.80
2017-08-19T04:16:20.163Z,14.70
2017-08-19T04:19:21.617Z,14.80
2017-08-19T04:22:22.976Z,14.80
2017-08-19T04:25:24.343Z,14.80
2017-08-19T04:28:25.752Z,14.80
2017-08-19T04:31:27.149Z,14.90
2017-08-19T04:34:28.547Z,14.80
2017-08-19T04:37:30.656Z,14.80
2017-08-19T04:40:32.039Z,14.80
2017-08-19T04:43:33.449Z,14.90
2017-08-19T04:46:34.841Z,15.00
2017-08-19T04:49:36.212Z,14.90
2017-08-19T04:52:38.354Z,14.90
2017-08-19T04:55:39.698Z,14.90
2017-08-19T04:58:41.148Z,14.90
2017-08-19T05:01:42.549Z,14.70
2017-08-19T05:04:43.962Z,14.70
2017-08-19T05:07:45.390Z,14.70
2017-08-19T05:10:46.759Z,14.80
2017-08-19T05:13:48.132Z,14.60
2017-08-19T05:16:50.241Z,14.60
2017-08-19T05:19:51.641Z,14.60
2017-08-19T05:22:53.044Z,14.60
2017-08-19T05:25:54.433Z,14.60
2017-08-19T05:28:55.865Z,14.60
2017-08-19T05:31:57.253Z,14.40
2017-08-19T05:34:58.673Z,14.70
2017-08-19T05:38:00.027Z,14.70
2017-08-19T05:41:01.439Z,14.70
2017-08-19T05:44:02.838Z,14.70
2017-08-19T05:47:04.239Z,14.90
2017-08-19T05:50:05.606Z,14.80
2017-08-19T05:53:06.945Z,14.80
2017-08-19T05:56:08.286Z,14.70
2017-08-19T05:59:09.650Z,14.70
2017-08-19T06:02:11.055Z,14.60
2017-08-19T06:05:12.435Z,14.80
2017-08-19T06:08:13.803Z,14.80
2017-08-19T06:11:15.192Z,14.80
2017-08-19T06:14:16.589Z,14.70
2017-08-19T06:17:17.998Z,14.70
2017-08-19T06:20:19.436Z,14.80
2017-08-19T06:23:20.782Z,14.80
2017-08-19T06:26:22.159Z,14.90
2017-08-19T06:29:23.468Z,14.90
2017-08-19T06:32:24.826Z,15.10
2017-08-19T06:35:26.166Z,15.10
2017-08-19T06:38:27.498Z,15.00
2017-08-19T06:41:28.866Z,15.00
2017-08-19T06:44:30.256Z,14.90
2017-08-19T06:47:31.668Z,15.00
2017-08-19T06:50:33.077Z,14.90
2017-08-19T06:53:35.217Z,15.10
2017-08-19T06:56:36.614Z,15.10
2017-08-19T06:59:37.947Z,15.10
2017-08-19T07:02:40.113Z,15.20
2017-08-19T07:05:41.451Z,15.10
2017-08-19T07:08:42.845Z,15.20
2017-08-19T07:11:44.247Z,15.20
2017-08-19T07:14:45.589Z,15.30
2017-08-19T07:17:47.016Z,15.30
2017-08-19T07:20:48.369Z,15.40
2017-08-19T07:23:49.772Z,15.40
2017-08-19T07:26:51.851Z,15.60
2017-08-19T07:29:53.977Z,15.70
2017-08-19T07:32:55.349Z,15.70
2017-08-19T07:35:56.710Z,15.80
2017-08-19T07:38:58.840Z,16.10
2017-08-19T07:42:00.211Z,16.10
2017-08-19T07:45:01.545Z,16.20
2017-08-19T07:48:02.968Z,16.10
2017-08-19T07:51:04.311Z,16.10
2017-08-19T07:54:05.687Z,16.20
2017-08-19T07:57:07.088Z,16.30
2017-08-19T08:00:09.191Z,16.30
2017-08-19T08:03:10.563Z,16.30
2017-08-19T08:06:11.922Z,16.30
2017-08-19T08:09:13.291Z,16.30
2017-08-19T08:12:14.648Z,16.20
2017-08-19T08:15:16.021Z,16.10
2017-08-19T08:18:17.382Z,16.20
2017-08-19T08:21:18.764Z,16.30
2017-08-19T08:24:20.149Z,16.30
2017-08-19T08:27:21.533Z,16.30
2017-08-19T08:30:22.891Z,16.20
2017-08-19T08:33:24.284Z,16.20
2017-08-19T08:36:25.636Z,16.40
2017-08-19T08:39:27.054Z,16.50
2017-08-19T08:42:28.417Z,16.50
2017-08-19T08:45:29.837Z,16.50
2017-08-19T08:48:31.472Z,16.60
2017-08-19T08:51:33.637Z,16.30
2017-08-19T08:54:35.778Z,16.20
2017-08-19T08:57:37.182Z,16.00
2017-08-19T09:00:38.757Z,16.00
2017-08-19T09:03:40.120Z,16.10
2017-08-19T09:06:41.493Z,16.20
2017-08-19T09:09:42.884Z,16.20
2017-08-19T09:12:44.321Z,16.30
2017-08-19T09:15:46.407Z,16.20
2017-08-19T09:18:47.801Z,16.20
2017-08-19T09:21:49.341Z,16.20
2017-08-19T09:24:50.701Z,16.60
2017-08-19T09:27:52.291Z,16.90
2017-08-19T09:30:53.741Z,17.20
2017-08-19T09:33:55.121Z,17.40
2017-08-19T09:36:56.438Z,17.70
2017-08-19T09:39:57.833Z,17.70
2017-08-19T09:42:59.191Z,17.50
2017-08-19T09:46:00.572Z,17.50
2017-08-19T09:49:01.888Z,17.40
2017-08-19T09:52:03.331Z,17.40
2017-08-19T09:55:04.723Z,17.20
2017-08-19T09:58:06.095Z,17.10
2017-08-19T10:01:07.492Z,17.10
2017-08-19T10:04:08.905Z,17.10
2017-08-19T10:07:11.041Z,17.10
2017-08-19T10:10:30.971Z,17.10
2017-08-19T10:13:32.347Z,17.10
2017-08-19T10:16:33.713Z,17.20
2017-08-19T10:19:35.158Z,17.40
2017-08-19T10:22:36.734Z,17.50
2017-08-19T10:25:38.080Z,17.60
2017-08-19T10:28:39.444Z,17.70
2017-08-19T10:31:40.780Z,17.80
2017-08-19T10:34:42.176Z,17.80
2017-08-19T10:37:44.275Z,17.60
2017-08-19T10:40:45.679Z,17.50
2017-08-19T10:43:47.041Z,17.40
2017-08-19T10:46:49.170Z,17.30
2017-08-19T10:49:50.663Z,17.30
2017-08-19T10:52:52.028Z,17.40
2017-08-19T10:55:54.148Z,17.70
2017-08-19T10:58:55.454Z,17.70
2017-08-19T11:01:56.825Z,17.70
2017-08-19T11:04:58.179Z,18.30
2017-08-19T11:07:59.578Z,18.80
2017-08-19T11:11:01.078Z,18.60
2017-08-19T11:14:02.441Z,18.60
2017-08-19T11:17:03.911Z,18.80
2017-08-19T11:20:05.231Z,18.70
2017-08-19T11:23:06.641Z,18.90
2017-08-19T11:26:08.760Z,19.10
2017-08-19T11:29:10.137Z,19.10
2017-08-19T11:32:11.498Z,19.00
2017-08-19T11:35:12.892Z,19.40
2017-08-19T11:38:14.380Z,19.90
2017-08-19T11:41:15.736Z,19.80
2017-08-19T11:44:17.103Z,19.60
2017-08-19T11:47:18.493Z,19.20
2017-08-19T11:50:19.913Z,19.10
2017-08-19T11:53:21.299Z,18.90
2017-08-19T11:56:22.675Z,19.20
2017-08-19T11:59:24.155Z,19.20
2017-08-19T12:02:25.527Z,19.20
2017-08-19T12:05:27.683Z,19.50
2017-08-19T12:08:29.034Z,19.50
2017-08-19T12:11:30.416Z,19.80
2017-08-19T12:14:31.783Z,19.90
2017-08-19T12:17:33.195Z,19.70
2017-08-19T12:20:35.309Z,19.70
2017-08-19T12:23:36.698Z,19.70
2017-08-19T12:26:38.167Z,19.50
2017-08-19T12:29:40.343Z,19.30
2017-08-19T12:32:42.508Z,18.90
2017-08-19T12:35:44.610Z,18.80
2017-08-19T12:38:45.967Z,18.80
2017-08-19T12:41:47.324Z,18.80
2017-08-19T12:44:48.680Z,18.80
2017-08-19T12:47:50.043Z,19.10
2017-08-19T12:50:51.443Z,19.20
2017-08-19T12:53:52.851Z,19.20
2017-08-19T12:56:54.254Z,19.20
2017-08-19T12:59:55.891Z,19.20
2017-08-19T13:03:04.805Z,19.00
2017-08-19T13:06:06.193Z,19.00
2017-08-19T13:09:07.547Z,18.90
2017-08-19T13:12:08.936Z,18.70
2017-08-19T13:15:10.321Z,19.10
2017-08-19T13:18:12.449Z,19.50
2017-08-19T13:21:13.792Z,19.40
2017-08-19T13:24:15.169Z,19.20
2017-08-19T13:27:16.512Z,19.20
2017-08-19T13:30:17.926Z,19.10
2017-08-19T13:33:19.325Z,19.10
2017-08-19T13:36:20.753Z,18.90
2017-08-19T13:39:22.110Z,18.70
2017-08-19T13:42:23.497Z,18.60
2017-08-19T13:45:25.629Z,18.50
2017-08-19T13:48:27.027Z,18.50
2017-08-19T13:51:29.490Z,18.50
2017-08-19T13:54:31.639Z,18.40
2017-08-19T13:57:33.117Z,18.40
2017-08-19T14:00:35.193Z,18.90
2017-08-19T14:03:36.596Z,18.90
2017-08-19T14:06:37.954Z,18.80
2017-08-19T14:09:39.361Z,18.70
2017-08-19T14:12:40.751Z,18.70
2017-08-19T14:15:42.114Z,18.60
2017-08-19T14:18:43.776Z,18.60
2017-08-19T14:21:45.116Z,18.70
2017-08-19T14:24:46.487Z,18.60
2017-08-19T14:27:48.575Z,18.70
2017-08-19T14:30:56.944Z,18.60
2017-08-19T14:33:58.292Z,18.60
2017-08-19T14:36:59.684Z,18.70
2017-08-19T14:40:01.769Z,18.60
2017-08-19T14:43:03.191Z,18.60
2017-08-19T14:46:05.297Z,18.60
2017-08-19T14:49:06.713Z,18.50
2017-08-19T14:52:08.832Z,18.50
2017-08-19T14:55:10.252Z,18.50
2017-08-19T14:58:11.722Z,18.20
2017-08-19T15:01:13.074Z,18.10
2017-08-19T15:04:14.468Z,18.10
2017-08-19T15:07:15.845Z,18.10
2017-08-19T15:10:17.984Z,18.10
2017-08-19T15:13:19.337Z,18.10
2017-08-19T15:16:20.734Z,18.00
2017-08-19T15:19:22.401Z,18.00
2017-08-19T15:22:23.781Z,18.00
2017-08-19T15:25:25.132Z,18.00
2017-08-19T15:28:26.517Z,18.10
2017-08-19T15:31:27.958Z,18.00
2017-08-19T15:34:29.325Z,17.90
2017-08-19T15:37:31.475Z,17.90
2017-08-19T15:40:32.824Z,17.80
2017-08-19T15:43:34.207Z,17.70
2017-08-19T15:46:35.715Z,17.60
2017-08-19T15:49:37.097Z,17.30
2017-08-19T15:52:38.465Z,17.10
2017-08-19T15:55:39.858Z,16.80
2017-08-19T15:58:41.220Z,16.80
2017-08-19T16:01:42.557Z,16.60
2017-08-19T16:04:43.950Z,16.60
2017-08-19T16:07:46.066Z,16.90
2017-08-19T16:10:47.443Z,16.90
2017-08-19T16:13:48.914Z,17.10
2017-08-19T16:16:50.278Z,17.30
2017-08-19T16:19:51.648Z,17.20
2017-08-19T16:22:52.984Z,17.10
2017-08-19T16:25:54.349Z,17.20
2017-08-19T16:28:55.678Z,17.20
2017-08-19T16:31:57.049Z,17.40
2017-08-19T16:34:58.621Z,17.40
2017-08-19T16:38:00.003Z,17.40
2017-08-19T16:41:01.372Z,17.50
2017-08-19T16:44:02.740Z,17.30
2017-08-19T16:47:04.208Z,17.30
2017-08-19T16:50:05.573Z,17.10
2017-08-19T16:53:07.712Z,17.20
2017-08-19T16:56:09.061Z,17.20
2017-08-19T16:59:10.573Z,17.20
2017-08-19T17:02:11.944Z,17.30
2017-08-19T17:05:13.337Z,17.20
2017-08-19T17:08:15.398Z,17.40
2017-08-19T17:11:16.928Z,17.50
2017-08-19T17:14:18.275Z,17.90
2017-08-19T17:17:19.628Z,17.80
2017-08-19T17:20:20.988Z,17.60
2017-08-19T17:23:22.376Z,17.40
2017-08-19T17:26:24.470Z,17.30
2017-08-19T17:29:25.836Z,17.30
2017-08-19T17:32:27.207Z,17.30
2017-08-19T17:35:28.552Z,17.30
2017-08-19T17:38:29.938Z,17.20
2017-08-19T17:41:32.025Z,17.20
2017-08-19T17:44:33.407Z,17.20
2017-08-19T17:47:34.806Z,17.00
2017-08-19T17:50:36.927Z,17.00
2017-08-19T17:53:38.307Z,17.00
2017-08-19T17:56:39.728Z,16.90
2017-08-19T17:59:41.080Z,16.90
2017-08-19T18:02:42.473Z,17.00
2017-08-19T18:05:43.829Z,17.00
2017-08-19T18:08:45.226Z,17.00
2017-08-19T18:11:46.841Z,17.10
2017-08-19T18:14:48.935Z,17.00
2017-08-19T18:17:50.435Z,17.00
2017-08-19T18:20:51.796Z,16.90
2017-08-19T18:23:53.157Z,16.80
2017-08-19T18:26:55.267Z,16.50
2017-08-19T18:29:56.660Z,16.50
2017-08-19T18:32:58.050Z,16.60
2017-08-19T18:35:59.417Z,16.50
2017-08-19T18:39:00.979Z,16.60
2017-08-19T18:42:02.320Z,16.50
2017-08-19T18:45:03.696Z,16.50
2017-08-19T18:48:05.016Z,16.40
2017-08-19T18:51:06.361Z,16.40
2017-08-19T18:54:07.723Z,16.50
2017-08-19T18:57:09.112Z,16.30
2017-08-19T19:00:10.485Z,16.30
2017-08-19T19:03:12.611Z,16.30
2017-08-19T19:06:14.109Z,16.20
2017-08-19T19:09:15.460Z,16.20
2017-08-19T19:12:17.832Z,16.10
2017-08-19T19:15:19.944Z,16.20
2017-08-19T19:18:21.383Z,16.00
2017-08-19T19:21:22.743Z,16.10
2017-08-19T19:24:24.150Z,16.20
2017-08-19T19:27:25.712Z,16.10
2017-08-19T19:30:27.180Z,16.10
2017-08-19T19:33:28.657Z,16.10
2017-08-19T19:36:30.054Z,16.10
2017-08-19T19:39:32.233Z,16.10
2017-08-19T19:42:33.617Z,16.10
2017-08-19T19:45:35.020Z,16.10
2017-08-19T19:48:36.400Z,16.10
2017-08-19T19:51:37.853Z,16.00
2017-08-19T19:54:39.282Z,15.70
2017-08-19T19:57:40.679Z,16.10
2017-08-19T20:00:42.814Z,16.10
2017-08-19T20:03:44.183Z,16.10
2017-08-19T20:06:45.649Z,16.20
2017-08-19T20:09:47.804Z,15.90
2017-08-19T20:12:49.225Z,15.80
2017-08-19T20:15:50.676Z,15.90
2017-08-19T20:18:52.159Z,15.90
2017-08-19T20:21:53.573Z,15.80
2017-08-19T20:24:55.050Z,15.70
2017-08-19T20:27:56.543Z,15.70
2017-08-19T20:30:57.989Z,15.60
2017-08-19T20:33:59.447Z,15.60
2017-08-19T20:37:00.901Z,15.80
2017-08-19T20:40:03.081Z,16.00
2017-08-19T20:43:04.494Z,16.00
2017-08-19T20:46:05.973Z,16.00
2017-08-19T20:49:08.119Z,15.70
2017-08-19T20:52:09.500Z,15.70
2017-08-19T20:55:10.904Z,15.70
2017-08-19T20:58:12.425Z,15.60
2017-08-19T21:01:13.868Z,15.50
2017-08-19T21:04:15.416Z,15.50
2017-08-19T21:07:17.623Z,15.50
2017-08-19T21:10:19.136Z,15.50
2017-08-19T21:13:20.635Z,15.40
2017-08-19T21:16:22.197Z,15.50
2017-08-19T21:19:23.647Z,15.50
2017-08-19T21:22:25.117Z,15.60
2017-08-19T21:25:26.647Z,15.60
2017-08-19T21:28:28.213Z,15.50
2017-08-19T21:31:29.586Z,15.30
2017-08-19T21:34:30.991Z,16.40
2017-08-19T21:37:32.409Z,15.20
2017-08-19T21:40:33.857Z,15.40
2017-08-19T21:46:44.266Z,15.30
2017-08-19T21:49:45.637Z,15.90
2017-08-19T21:52:47.056Z,15.10
2017-08-19T21:55:48.497Z,15.30
2017-08-19T21:58:50.654Z,15.20
2017-08-19T22:01:52.860Z,15.30
2017-08-19T22:04:54.208Z,15.30
2017-08-19T22:07:55.630Z,15.30
2017-08-19T22:10:57.782Z,15.40
2017-08-19T22:13:59.205Z,15.40
2017-08-19T22:17:00.636Z,15.60
2017-08-19T22:20:02.088Z,15.50
2017-08-19T22:23:03.492Z,15.40
2017-08-19T22:26:04.926Z,15.40
2017-08-19T22:29:06.347Z,15.50
2017-08-19T22:32:07.693Z,15.50
2017-08-19T22:35:09.129Z,15.60
2017-08-19T22:38:11.265Z,15.60
2017-08-19T22:41:12.732Z,15.60
2017-08-19T22:44:14.878Z,15.60
2017-08-19T22:47:16.328Z,15.60
2017-08-19T22:50:17.740Z,15.50
2017-08-19T22:53:19.143Z,15.80
2017-08-19T22:56:20.629Z,15.50
2017-08-19T22:59:21.997Z,15.50
2017-08-19T23:02:23.415Z,15.50
2017-08-19T23:05:24.794Z,15.60
2017-08-19T23:08:26.193Z,15.60
2017-08-19T23:11:27.682Z,15.40
2017-08-19T23:14:29.817Z,15.30
2017-08-19T23:17:31.239Z,15.20
2017-08-19T23:20:32.625Z,15.20
2017-08-19T23:23:34.024Z,15.40
2017-08-19T23:26:35.405Z,15.40
2017-08-19T23:29:36.833Z,15.40
2017-08-19T23:32:38.203Z,15.40
2017-08-19T23:35:39.608Z,15.40
2017-08-19T23:38:41.736Z,15.50
2017-08-19T23:41:43.074Z,15.50
2017-08-19T23:44:44.452Z,16.10
2017-08-19T23:47:45.839Z,15.40
2017-08-19T23:50:47.244Z,15.50
2017-08-19T23:53:48.590Z,15.40
2017-08-19T23:56:49.976Z,15.50
2017-08-19T23:59:52.100Z,15.40
